sensor_id;sensor_type;location;lat;lon;timestamp;P1;durP1;ratioP1;P2;durP2;ratioP2
19111;SDS011;9688;51.906;8.376;2023-07-13T00:01:42;4.00;;;2.73;;
19111;SDS011;9688;51.906;8.376;2023-07-13T00:04:27;4.70;;;2.63;;
19111;SDS011;9688;51.906;8.376;2023-07-13T00:07:13;6.73;;;2.60;;
19111;SDS011;9688;51.906;8.376;2023-07-13T00:10:01;3.80;;;2.30;;
19111;SDS011;9688;51.906;8.376;2023-07-13T00:12:47;7.33;;;2.57;;
19111;SDS011;9688;51.906;8.376;2023-07-13T00:15:39;6.00;;;2.40;;
19111;SDS011;9688;51.906;8.376;2023-07-13T00:18:24;6.10;;;2.50;;
19111;SDS011;9688;51.906;8.376;2023-07-13T00:21:14;3.50;;;2.50;;
19111;SDS011;9688;51.906;8.376;2023-07-13T00:24:00;3.47;;;2.27;;
19111;SDS011;9688;51.906;8.376;2023-07-13T00:26:47;4.80;;;2.10;;
19111;SDS011;9688;51.906;8.376;2023-07-13T00:29:32;7.87;;;2.87;;
19111;SDS011;9688;51.906;8.376;2023-07-13T00:32:19;5.50;;;2.70;;
19111;SDS011;9688;51.906;8.376;2023-07-13T00:35:05;5.93;;;2.33;;
19111;SDS011;9688;51.906;8.376;2023-07-13T00:37:50;6.40;;;2.43;;
19111;SDS011;9688;51.906;8.376;2023-07-13T00:40:36;6.67;;;2.60;;
19111;SDS011;9688;51.906;8.376;2023-07-13T00:43:25;10.47;;;2.60;;
19111;SDS011;9688;51.906;8.376;2023-07-13T00:46:17;4.87;;;2.43;;
19111;SDS011;9688;51.906;8.376;2023-07-13T00:49:09;2.97;;;2.33;;
19111;SDS011;9688;51.906;8.376;2023-07-13T00:51:59;3.00;;;2.70;;
19111;SDS011;9688;51.906;8.376;2023-07-13T00:54:48;4.33;;;2.50;;
19111;SDS011;9688;51.906;8.376;2023-07-13T00:57:35;4.03;;;2.40;;
19111;SDS011;9688;51.906;8.376;2023-07-13T01:00:22;4.57;;;2.67;;
19111;SDS011;9688;51.906;8.376;2023-07-13T01:03:11;9.93;;;2.60;;
19111;SDS011;9688;51.906;8.376;2023-07-13T01:05:56;3.57;;;2.97;;
19111;SDS011;9688;51.906;8.376;2023-07-13T01:08:42;8.13;;;3.13;;
19111;SDS011;9688;51.906;8.376;2023-07-13T01:11:29;4.40;;;2.40;;
19111;SDS011;9688;51.906;8.376;2023-07-13T01:14:15;4.73;;;2.50;;
19111;SDS011;9688;51.906;8.376;2023-07-13T01:17:02;5.50;;;2.70;;
19111;SDS011;9688;51.906;8.376;2023-07-13T01:19:49;9.57;;;3.13;;
19111;SDS011;9688;51.906;8.376;2023-07-13T01:22:36;7.00;;;2.70;;
19111;SDS011;9688;51.906;8.376;2023-07-13T01:25:22;6.73;;;2.40;;
19111;SDS011;9688;51.906;8.376;2023-07-13T01:28:08;6.57;;;2.40;;
19111;SDS011;9688;51.906;8.376;2023-07-13T01:30:54;4.80;;;2.70;;
19111;SDS011;9688;51.906;8.376;2023-07-13T01:33:41;8.10;;;2.63;;
19111;SDS011;9688;51.906;8.376;2023-07-13T01:36:27;7.00;;;2.67;;
19111;SDS011;9688;51.906;8.376;2023-07-13T01:39:14;4.13;;;2.53;;
19111;SDS011;9688;51.906;8.376;2023-07-13T01:42:00;6.70;;;2.67;;
19111;SDS011;9688;51.906;8.376;2023-07-13T01:44:47;8.17;;;2.60;;
19111;SDS011;9688;51.906;8.376;2023-07-13T01:47:33;7.70;;;2.80;;
19111;SDS011;9688;51.906;8.376;2023-07-13T01:50:19;7.20;;;2.70;;
19111;SDS011;9688;51.906;8.376;2023-07-13T01:53:05;4.93;;;2.50;;
19111;SDS011;9688;51.906;8.376;2023-07-13T01:55:52;9.03;;;2.70;;
19111;SDS011;9688;51.906;8.376;2023-07-13T01:58:38;6.20;;;2.50;;
19111;SDS011;9688;51.906;8.376;2023-07-13T02:01:24;6.07;;;2.57;;
19111;SDS011;9688;51.906;8.376;2023-07-13T02:04:10;4.43;;;2.60;;
19111;SDS011;9688;51.906;8.376;2023-07-13T02:06:56;5.17;;;2.20;;
19111;SDS011;9688;51.906;8.376;2023-07-13T02:09:42;6.10;;;2.43;;
19111;SDS011;9688;51.906;8.376;2023-07-13T02:12:29;5.83;;;2.40;;
19111;SDS011;9688;51.906;8.376;2023-07-13T02:15:15;4.37;;;2.87;;
19111;SDS011;9688;51.906;8.376;2023-07-13T02:18:01;8.43;;;2.80;;
19111;SDS011;9688;51.906;8.376;2023-07-13T02:20:47;6.87;;;3.07;;
19111;SDS011;9688;51.906;8.376;2023-07-13T02:23:33;6.20;;;2.57;;
19111;SDS011;9688;51.906;8.376;2023-07-13T02:26:19;7.73;;;2.77;;
19111;SDS011;9688;51.906;8.376;2023-07-13T02:29:06;6.67;;;2.67;;
19111;SDS011;9688;51.906;8.376;2023-07-13T02:31:52;7.43;;;2.73;;
19111;SDS011;9688;51.906;8.376;2023-07-13T02:34:38;8.13;;;2.80;;
19111;SDS011;9688;51.906;8.376;2023-07-13T02:37:26;12.97;;;3.30;;
19111;SDS011;9688;51.906;8.376;2023-07-13T02:40:12;7.30;;;2.73;;
19111;SDS011;9688;51.906;8.376;2023-07-13T02:42:57;8.73;;;2.60;;
19111;SDS011;9688;51.906;8.376;2023-07-13T02:45:45;10.50;;;2.70;;
19111;SDS011;9688;51.906;8.376;2023-07-13T02:48:31;9.93;;;2.53;;
19111;SDS011;9688;51.906;8.376;2023-07-13T02:51:17;10.10;;;2.97;;
19111;SDS011;9688;51.906;8.376;2023-07-13T02:54:04;7.60;;;3.03;;
19111;SDS011;9688;51.906;8.376;2023-07-13T02:56:52;5.47;;;2.67;;
19111;SDS011;9688;51.906;8.376;2023-07-13T02:59:38;6.93;;;2.57;;
19111;SDS011;9688;51.906;8.376;2023-07-13T03:02:25;7.10;;;3.30;;
19111;SDS011;9688;51.906;8.376;2023-07-13T03:05:12;6.10;;;3.20;;
19111;SDS011;9688;51.906;8.376;2023-07-13T03:07:58;4.77;;;3.40;;
19111;SDS011;9688;51.906;8.376;2023-07-13T03:10:44;6.33;;;3.17;;
19111;SDS011;9688;51.906;8.376;2023-07-13T03:13:30;8.63;;;3.50;;
19111;SDS011;9688;51.906;8.376;2023-07-13T03:16:16;5.50;;;3.20;;
19111;SDS011;9688;51.906;8.376;2023-07-13T03:19:03;7.40;;;3.43;;
19111;SDS011;9688;51.906;8.376;2023-07-13T03:21:49;7.70;;;3.23;;
19111;SDS011;9688;51.906;8.376;2023-07-13T03:24:35;5.90;;;3.33;;
19111;SDS011;9688;51.906;8.376;2023-07-13T03:27:22;9.30;;;3.37;;
19111;SDS011;9688;51.906;8.376;2023-07-13T03:30:08;7.30;;;3.40;;
19111;SDS011;9688;51.906;8.376;2023-07-13T03:32:55;9.47;;;3.60;;
19111;SDS011;9688;51.906;8.376;2023-07-13T03:35:42;6.97;;;3.60;;
19111;SDS011;9688;51.906;8.376;2023-07-13T03:38:28;9.03;;;3.50;;
19111;SDS011;9688;51.906;8.376;2023-07-13T03:41:14;7.60;;;3.10;;
19111;SDS011;9688;51.906;8.376;2023-07-13T03:44:00;7.17;;;3.00;;
19111;SDS011;9688;51.906;8.376;2023-07-13T03:46:46;7.80;;;2.97;;
19111;SDS011;9688;51.906;8.376;2023-07-13T03:49:32;7.17;;;3.40;;
19111;SDS011;9688;51.906;8.376;2023-07-13T03:52:19;10.60;;;3.10;;
19111;SDS011;9688;51.906;8.376;2023-07-13T03:55:05;7.70;;;3.00;;
19111;SDS011;9688;51.906;8.376;2023-07-13T03:57:54;7.20;;;2.70;;
19111;SDS011;9688;51.906;8.376;2023-07-13T04:00:44;7.53;;;3.00;;
19111;SDS011;9688;51.906;8.376;2023-07-13T04:03:29;4.70;;;2.80;;
19111;SDS011;9688;51.906;8.376;2023-07-13T04:06:17;6.67;;;2.73;;
19111;SDS011;9688;51.906;8.376;2023-07-13T04:09:06;7.70;;;2.40;;
19111;SDS011;9688;51.906;8.376;2023-07-13T04:11:53;7.17;;;2.50;;
19111;SDS011;9688;51.906;8.376;2023-07-13T04:14:39;7.33;;;2.70;;
19111;SDS011;9688;51.906;8.376;2023-07-13T04:17:25;8.93;;;2.77;;
19111;SDS011;9688;51.906;8.376;2023-07-13T04:20:11;6.37;;;2.60;;
19111;SDS011;9688;51.906;8.376;2023-07-13T04:22:57;5.50;;;2.27;;
19111;SDS011;9688;51.906;8.376;2023-07-13T04:25:44;6.53;;;2.50;;
19111;SDS011;9688;51.906;8.376;2023-07-13T04:28:33;6.67;;;2.17;;
19111;SDS011;9688;51.906;8.376;2023-07-13T04:31:20;5.50;;;2.23;;
19111;SDS011;9688;51.906;8.376;2023-07-13T04:34:06;6.97;;;2.20;;
19111;SDS011;9688;51.906;8.376;2023-07-13T04:36:52;4.77;;;2.07;;
19111;SDS011;9688;51.906;8.376;2023-07-13T04:39:38;6.53;;;2.37;;
19111;SDS011;9688;51.906;8.376;2023-07-13T04:42:28;7.33;;;2.10;;
19111;SDS011;9688;51.906;8.376;2023-07-13T04:45:14;6.63;;;2.10;;
19111;SDS011;9688;51.906;8.376;2023-07-13T04:48:01;5.20;;;2.17;;
19111;SDS011;9688;51.906;8.376;2023-07-13T04:50:48;4.70;;;1.93;;
19111;SDS011;9688;51.906;8.376;2023-07-13T04:53:40;4.13;;;1.97;;
19111;SDS011;9688;51.906;8.376;2023-07-13T04:56:29;5.03;;;2.00;;
19111;SDS011;9688;51.906;8.376;2023-07-13T04:59:17;4.47;;;2.03;;
19111;SDS011;9688;51.906;8.376;2023-07-13T05:02:02;5.30;;;2.17;;
19111;SDS011;9688;51.906;8.376;2023-07-13T05:04:51;7.03;;;2.07;;
19111;SDS011;9688;51.906;8.376;2023-07-13T05:07:37;3.90;;;1.83;;
19111;SDS011;9688;51.906;8.376;2023-07-13T05:10:23;6.97;;;2.10;;
19111;SDS011;9688;51.906;8.376;2023-07-13T05:13:09;3.57;;;1.90;;
19111;SDS011;9688;51.906;8.376;2023-07-13T05:15:57;4.30;;;2.03;;
19111;SDS011;9688;51.906;8.376;2023-07-13T05:18:43;2.80;;;1.67;;
19111;SDS011;9688;51.906;8.376;2023-07-13T05:21:29;4.30;;;1.93;;
19111;SDS011;9688;51.906;8.376;2023-07-13T05:24:15;5.67;;;2.20;;
19111;SDS011;9688;51.906;8.376;2023-07-13T05:27:01;4.17;;;1.80;;
19111;SDS011;9688;51.906;8.376;2023-07-13T05:29:47;11.10;;;2.17;;
19111;SDS011;9688;51.906;8.376;2023-07-13T05:32:34;12.67;;;2.40;;
19111;SDS011;9688;51.906;8.376;2023-07-13T05:35:20;5.33;;;1.90;;
19111;SDS011;9688;51.906;8.376;2023-07-13T05:38:06;7.37;;;2.33;;
19111;SDS011;9688;51.906;8.376;2023-07-13T05:40:53;6.57;;;1.80;;
19111;SDS011;9688;51.906;8.376;2023-07-13T05:43:40;3.97;;;2.17;;
19111;SDS011;9688;51.906;8.376;2023-07-13T05:46:26;12.60;;;2.53;;
19111;SDS011;9688;51.906;8.376;2023-07-13T05:49:13;4.27;;;2.10;;
19111;SDS011;9688;51.906;8.376;2023-07-13T05:52:00;5.27;;;2.00;;
19111;SDS011;9688;51.906;8.376;2023-07-13T05:54:46;5.90;;;2.13;;
19111;SDS011;9688;51.906;8.376;2023-07-13T05:57:34;5.60;;;2.10;;
19111;SDS011;9688;51.906;8.376;2023-07-13T06:00:21;6.87;;;2.20;;
19111;SDS011;9688;51.906;8.376;2023-07-13T06:03:07;4.77;;;2.00;;
19111;SDS011;9688;51.906;8.376;2023-07-13T06:05:55;5.53;;;2.30;;
19111;SDS011;9688;51.906;8.376;2023-07-13T06:08:44;4.87;;;2.00;;
19111;SDS011;9688;51.906;8.376;2023-07-13T06:11:30;7.23;;;2.07;;
19111;SDS011;9688;51.906;8.376;2023-07-13T06:14:16;8.00;;;2.50;;
19111;SDS011;9688;51.906;8.376;2023-07-13T06:17:02;6.43;;;2.37;;
19111;SDS011;9688;51.906;8.376;2023-07-13T06:19:48;6.07;;;2.17;;
19111;SDS011;9688;51.906;8.376;2023-07-13T06:22:36;4.07;;;2.17;;
19111;SDS011;9688;51.906;8.376;2023-07-13T06:25:21;5.57;;;2.07;;
19111;SDS011;9688;51.906;8.376;2023-07-13T06:28:08;6.53;;;2.20;;
19111;SDS011;9688;51.906;8.376;2023-07-13T06:30:54;8.30;;;2.40;;
19111;SDS011;9688;51.906;8.376;2023-07-13T06:33:40;7.23;;;2.50;;
19111;SDS011;9688;51.906;8.376;2023-07-13T06:36:26;8.03;;;3.17;;
19111;SDS011;9688;51.906;8.376;2023-07-13T06:39:14;6.40;;;2.40;;
19111;SDS011;9688;51.906;8.376;2023-07-13T06:42:00;8.63;;;2.33;;
19111;SDS011;9688;51.906;8.376;2023-07-13T06:44:46;6.87;;;2.33;;
19111;SDS011;9688;51.906;8.376;2023-07-13T06:47:32;8.83;;;2.90;;
19111;SDS011;9688;51.906;8.376;2023-07-13T06:50:18;8.97;;;2.60;;
19111;SDS011;9688;51.906;8.376;2023-07-13T06:53:04;6.67;;;3.20;;
19111;SDS011;9688;51.906;8.376;2023-07-13T06:55:52;10.40;;;2.93;;
19111;SDS011;9688;51.906;8.376;2023-07-13T06:58:38;6.23;;;2.63;;
19111;SDS011;9688;51.906;8.376;2023-07-13T07:01:25;8.43;;;2.60;;
19111;SDS011;9688;51.906;8.376;2023-07-13T07:04:11;9.63;;;2.90;;
19111;SDS011;9688;51.906;8.376;2023-07-13T07:06:58;9.47;;;2.90;;
19111;SDS011;9688;51.906;8.376;2023-07-13T07:09:43;10.43;;;2.90;;
19111;SDS011;9688;51.906;8.376;2023-07-13T07:12:31;6.47;;;2.77;;
19111;SDS011;9688;51.906;8.376;2023-07-13T07:15:17;5.07;;;2.80;;
19111;SDS011;9688;51.906;8.376;2023-07-13T07:18:04;6.03;;;2.77;;
19111;SDS011;9688;51.906;8.376;2023-07-13T07:20:52;7.53;;;2.70;;
19111;SDS011;9688;51.906;8.376;2023-07-13T07:23:38;6.93;;;2.57;;
19111;SDS011;9688;51.906;8.376;2023-07-13T07:26:24;10.23;;;3.30;;
19111;SDS011;9688;51.906;8.376;2023-07-13T07:29:13;9.07;;;2.97;;
19111;SDS011;9688;51.906;8.376;2023-07-13T07:31:58;4.97;;;3.20;;
19111;SDS011;9688;51.906;8.376;2023-07-13T07:34:45;4.43;;;3.10;;
19111;SDS011;9688;51.906;8.376;2023-07-13T07:37:51;9.13;;;3.37;;
19111;SDS011;9688;51.906;8.376;2023-07-13T07:40:40;7.90;;;3.27;;
19111;SDS011;9688;51.906;8.376;2023-07-13T07:43:27;7.67;;;3.40;;
19111;SDS011;9688;51.906;8.376;2023-07-13T07:46:14;8.63;;;3.37;;
19111;SDS011;9688;51.906;8.376;2023-07-13T07:49:00;7.63;;;3.40;;
19111;SDS011;9688;51.906;8.376;2023-07-13T07:51:45;6.37;;;3.90;;
19111;SDS011;9688;51.906;8.376;2023-07-13T07:54:31;9.43;;;3.30;;
19111;SDS011;9688;51.906;8.376;2023-07-13T07:57:18;6.97;;;3.73;;
19111;SDS011;9688;51.906;8.376;2023-07-13T08:00:04;8.23;;;4.07;;
19111;SDS011;9688;51.906;8.376;2023-07-13T08:02:52;8.60;;;3.67;;
19111;SDS011;9688;51.906;8.376;2023-07-13T08:05:38;11.73;;;3.50;;
19111;SDS011;9688;51.906;8.376;2023-07-13T08:08:24;8.23;;;3.03;;
19111;SDS011;9688;51.906;8.376;2023-07-13T08:11:10;6.47;;;3.40;;
19111;SDS011;9688;51.906;8.376;2023-07-13T08:14:21;5.75;;;3.10;;
19111;SDS011;9688;51.906;8.376;2023-07-13T08:17:07;6.85;;;3.70;;
19111;SDS011;9688;51.906;8.376;2023-07-13T08:19:55;13.00;;;3.33;;
19111;SDS011;9688;51.906;8.376;2023-07-13T08:22:42;8.77;;;3.35;;
19111;SDS011;9688;51.906;8.376;2023-07-13T08:25:32;6.65;;;2.92;;
19111;SDS011;9688;51.906;8.376;2023-07-13T08:28:18;6.97;;;2.65;;
19111;SDS011;9688;51.906;8.376;2023-07-13T08:31:05;10.35;;;3.25;;
19111;SDS011;9688;51.906;8.376;2023-07-13T08:33:55;7.07;;;2.65;;
19111;SDS011;9688;51.906;8.376;2023-07-13T08:36:43;8.70;;;2.45;;
19111;SDS011;9688;51.906;8.376;2023-07-13T08:39:29;4.70;;;2.53;;
19111;SDS011;9688;51.906;8.376;2023-07-13T08:42:18;8.93;;;2.42;;
19111;SDS011;9688;51.906;8.376;2023-07-13T08:45:17;11.20;;;2.28;;
19111;SDS011;9688;51.906;8.376;2023-07-13T08:48:08;9.30;;;3.03;;
19111;SDS011;9688;51.906;8.376;2023-07-13T08:51:02;6.18;;;2.58;;
19111;SDS011;9688;51.906;8.376;2023-07-13T08:54:08;5.07;;;2.50;;
19111;SDS011;9688;51.906;8.376;2023-07-13T08:57:03;7.53;;;2.40;;
19111;SDS011;9688;51.906;8.376;2023-07-13T08:59:58;6.20;;;2.40;;
19111;SDS011;9688;51.906;8.376;2023-07-13T09:02:50;6.60;;;2.50;;
19111;SDS011;9688;51.906;8.376;2023-07-13T09:05:41;7.75;;;2.63;;
19111;SDS011;9688;51.906;8.376;2023-07-13T09:08:33;6.47;;;2.60;;
19111;SDS011;9688;51.906;8.376;2023-07-13T09:11:36;5.15;;;2.60;;
19111;SDS011;9688;51.906;8.376;2023-07-13T09:14:34;6.63;;;2.78;;
19111;SDS011;9688;51.906;8.376;2023-07-13T09:17:29;5.88;;;2.75;;
19111;SDS011;9688;51.906;8.376;2023-07-13T09:20:24;5.90;;;2.30;;
19111;SDS011;9688;51.906;8.376;2023-07-13T09:23:14;6.05;;;2.40;;
19111;SDS011;9688;51.906;8.376;2023-07-13T09:26:04;8.27;;;2.40;;
19111;SDS011;9688;51.906;8.376;2023-07-13T09:28:55;6.32;;;2.75;;
19111;SDS011;9688;51.906;8.376;2023-07-13T09:31:47;8.27;;;2.95;;
19111;SDS011;9688;51.906;8.376;2023-07-13T09:34:38;3.88;;;2.50;;
19111;SDS011;9688;51.906;8.376;2023-07-13T09:37:27;4.90;;;2.75;;
19111;SDS011;9688;51.906;8.376;2023-07-13T09:40:17;5.35;;;2.88;;
19111;SDS011;9688;51.906;8.376;2023-07-13T09:43:10;7.82;;;3.05;;
19111;SDS011;9688;51.906;8.376;2023-07-13T09:46:01;8.63;;;2.92;;
19111;SDS011;9688;51.906;8.376;2023-07-13T09:48:47;8.77;;;3.20;;
19111;SDS011;9688;51.906;8.376;2023-07-13T09:51:33;9.55;;;3.42;;
19111;SDS011;9688;51.906;8.376;2023-07-13T09:54:23;5.80;;;2.85;;
19111;SDS011;9688;51.906;8.376;2023-07-13T09:57:12;5.20;;;2.88;;
19111;SDS011;9688;51.906;8.376;2023-07-13T10:00:02;4.57;;;3.10;;
19111;SDS011;9688;51.906;8.376;2023-07-13T10:02:59;5.60;;;3.15;;
19111;SDS011;9688;51.906;8.376;2023-07-13T10:05:50;6.35;;;2.75;;
19111;SDS011;9688;51.906;8.376;2023-07-13T10:08:38;5.25;;;2.78;;
19111;SDS011;9688;51.906;8.376;2023-07-13T10:11:26;5.82;;;3.03;;
19111;SDS011;9688;51.906;8.376;2023-07-13T10:14:15;5.13;;;2.90;;
19111;SDS011;9688;51.906;8.376;2023-07-13T10:17:02;5.43;;;2.90;;
19111;SDS011;9688;51.906;8.376;2023-07-13T10:19:51;6.13;;;3.17;;
19111;SDS011;9688;51.906;8.376;2023-07-13T10:22:37;3.75;;;2.60;;
19111;SDS011;9688;51.906;8.376;2023-07-13T10:25:31;6.53;;;2.90;;
19111;SDS011;9688;51.906;8.376;2023-07-13T10:28:24;2.63;;;2.33;;
19111;SDS011;9688;51.906;8.376;2023-07-13T10:31:14;4.40;;;3.05;;
19111;SDS011;9688;51.906;8.376;2023-07-13T10:34:02;5.47;;;2.45;;
19111;SDS011;9688;51.906;8.376;2023-07-13T10:36:51;7.45;;;3.08;;
19111;SDS011;9688;51.906;8.376;2023-07-13T10:39:37;2.60;;;2.40;;
19111;SDS011;9688;51.906;8.376;2023-07-13T10:42:27;7.20;;;3.67;;
19111;SDS011;9688;51.906;8.376;2023-07-13T10:45:17;6.40;;;2.42;;
19111;SDS011;9688;51.906;8.376;2023-07-13T10:48:05;4.18;;;2.20;;
19111;SDS011;9688;51.906;8.376;2023-07-13T10:50:54;4.35;;;1.98;;
19111;SDS011;9688;51.906;8.376;2023-07-13T10:53:46;7.80;;;2.38;;
19111;SDS011;9688;51.906;8.376;2023-07-13T10:56:32;4.57;;;2.10;;
19111;SDS011;9688;51.906;8.376;2023-07-13T10:59:24;5.90;;;2.10;;
19111;SDS011;9688;51.906;8.376;2023-07-13T11:02:15;3.55;;;2.00;;
19111;SDS011;9688;51.906;8.376;2023-07-13T11:05:17;2.33;;;2.10;;
19111;SDS011;9688;51.906;8.376;2023-07-13T11:08:16;6.25;;;2.33;;
19111;SDS011;9688;51.906;8.376;2023-07-13T11:14:28;6.75;;;2.53;;
19111;SDS011;9688;51.906;8.376;2023-07-13T11:17:36;5.97;;;2.83;;
19111;SDS011;9688;51.906;8.376;2023-07-13T11:23:30;5.25;;;2.63;;
19111;SDS011;9688;51.906;8.376;2023-07-13T11:29:26;7.03;;;2.50;;
19111;SDS011;9688;51.906;8.376;2023-07-13T11:32:24;7.18;;;2.30;;
19111;SDS011;9688;51.906;8.376;2023-07-13T11:35:17;5.22;;;2.67;;
19111;SDS011;9688;51.906;8.376;2023-07-13T11:38:12;3.72;;;2.33;;
19111;SDS011;9688;51.906;8.376;2023-07-13T11:41:07;6.38;;;2.50;;
19111;SDS011;9688;51.906;8.376;2023-07-13T11:44:06;5.07;;;2.92;;
19111;SDS011;9688;51.906;8.376;2023-07-13T11:46:59;5.72;;;2.25;;
19111;SDS011;9688;51.906;8.376;2023-07-13T11:49:48;2.33;;;2.13;;
19111;SDS011;9688;51.906;8.376;2023-07-13T11:52:36;7.22;;;2.35;;
19111;SDS011;9688;51.906;8.376;2023-07-13T11:55:25;5.68;;;2.30;;
19111;SDS011;9688;51.906;8.376;2023-07-13T11:58:14;6.15;;;3.05;;
19111;SDS011;9688;51.906;8.376;2023-07-13T12:01:15;6.20;;;2.55;;
19111;SDS011;9688;51.906;8.376;2023-07-13T12:04:08;4.32;;;2.35;;
19111;SDS011;9688;51.906;8.376;2023-07-13T12:07:17;5.68;;;2.65;;
19111;SDS011;9688;51.906;8.376;2023-07-13T12:10:10;3.22;;;2.35;;
19111;SDS011;9688;51.906;8.376;2023-07-13T12:13:05;2.50;;;2.30;;
19111;SDS011;9688;51.906;8.376;2023-07-13T12:15:56;3.58;;;2.80;;
19111;SDS011;9688;51.906;8.376;2023-07-13T12:18:43;4.15;;;3.03;;
19111;SDS011;9688;51.906;8.376;2023-07-13T12:21:43;4.32;;;2.63;;
19111;SDS011;9688;51.906;8.376;2023-07-13T12:24:29;3.65;;;2.33;;
19111;SDS011;9688;51.906;8.376;2023-07-13T12:27:18;4.20;;;2.97;;
19111;SDS011;9688;51.906;8.376;2023-07-13T12:30:21;6.45;;;2.50;;
19111;SDS011;9688;51.906;8.376;2023-07-13T12:33:13;7.75;;;2.78;;
19111;SDS011;9688;51.906;8.376;2023-07-13T12:35:59;4.60;;;2.78;;
19111;SDS011;9688;51.906;8.376;2023-07-13T12:38:49;3.08;;;2.50;;
19111;SDS011;9688;51.906;8.376;2023-07-13T12:41:36;8.25;;;3.17;;
19111;SDS011;9688;51.906;8.376;2023-07-13T12:44:24;4.22;;;2.67;;
19111;SDS011;9688;51.906;8.376;2023-07-13T12:47:16;6.68;;;2.40;;
19111;SDS011;9688;51.906;8.376;2023-07-13T12:50:03;6.32;;;2.45;;
19111;SDS011;9688;51.906;8.376;2023-07-13T12:52:51;5.82;;;2.55;;
19111;SDS011;9688;51.906;8.376;2023-07-13T12:55:44;3.53;;;2.17;;
19111;SDS011;9688;51.906;8.376;2023-07-13T12:58:36;5.32;;;2.42;;
19111;SDS011;9688;51.906;8.376;2023-07-13T13:01:26;3.40;;;2.20;;
19111;SDS011;9688;51.906;8.376;2023-07-13T13:04:15;5.18;;;2.25;;
19111;SDS011;9688;51.906;8.376;2023-07-13T13:07:05;5.07;;;2.45;;
19111;SDS011;9688;51.906;8.376;2023-07-13T13:09:55;5.35;;;2.20;;
19111;SDS011;9688;51.906;8.376;2023-07-13T13:12:44;4.25;;;2.55;;
19111;SDS011;9688;51.906;8.376;2023-07-13T13:15:30;2.58;;;1.88;;
19111;SDS011;9688;51.906;8.376;2023-07-13T13:18:17;3.03;;;2.28;;
19111;SDS011;9688;51.906;8.376;2023-07-13T13:21:04;2.80;;;2.00;;
19111;SDS011;9688;51.906;8.376;2023-07-13T13:23:51;4.05;;;2.40;;
19111;SDS011;9688;51.906;8.376;2023-07-13T13:26:37;5.13;;;2.20;;
19111;SDS011;9688;51.906;8.376;2023-07-13T13:29:26;4.43;;;2.25;;
19111;SDS011;9688;51.906;8.376;2023-07-13T13:32:13;5.50;;;2.08;;
19111;SDS011;9688;51.906;8.376;2023-07-13T13:35:03;4.95;;;2.58;;
19111;SDS011;9688;51.906;8.376;2023-07-13T13:37:52;6.80;;;2.30;;
19111;SDS011;9688;51.906;8.376;2023-07-13T13:40:38;4.07;;;2.20;;
19111;SDS011;9688;51.906;8.376;2023-07-13T13:43:24;7.57;;;2.50;;
19111;SDS011;9688;51.906;8.376;2023-07-13T13:46:15;8.10;;;2.55;;
19111;SDS011;9688;51.906;8.376;2023-07-13T13:49:03;9.43;;;2.47;;
19111;SDS011;9688;51.906;8.376;2023-07-13T13:51:50;5.75;;;2.50;;
19111;SDS011;9688;51.906;8.376;2023-07-13T13:54:37;3.25;;;2.20;;
19111;SDS011;9688;51.906;8.376;2023-07-13T13:57:23;6.45;;;2.33;;
19111;SDS011;9688;51.906;8.376;2023-07-13T14:00:11;6.00;;;2.10;;
19111;SDS011;9688;51.906;8.376;2023-07-13T14:02:59;3.05;;;2.40;;
19111;SDS011;9688;51.906;8.376;2023-07-13T14:05:46;5.63;;;2.40;;
19111;SDS011;9688;51.906;8.376;2023-07-13T14:08:33;4.45;;;2.30;;
19111;SDS011;9688;51.906;8.376;2023-07-13T14:11:20;7.13;;;2.40;;
19111;SDS011;9688;51.906;8.376;2023-07-13T14:14:08;4.97;;;2.67;;
19111;SDS011;9688;51.906;8.376;2023-07-13T14:17:00;7.80;;;3.33;;
19111;SDS011;9688;51.906;8.376;2023-07-13T14:19:47;8.30;;;4.72;;
19111;SDS011;9688;51.906;8.376;2023-07-13T14:22:35;5.13;;;2.90;;
19111;SDS011;9688;51.906;8.376;2023-07-13T14:25:23;4.20;;;2.97;;
19111;SDS011;9688;51.906;8.376;2023-07-13T14:28:14;7.97;;;3.00;;
19111;SDS011;9688;51.906;8.376;2023-07-13T14:31:04;5.55;;;2.90;;
19111;SDS011;9688;51.906;8.376;2023-07-13T14:33:51;5.55;;;2.78;;
19111;SDS011;9688;51.906;8.376;2023-07-13T14:36:39;6.55;;;2.72;;
19111;SDS011;9688;51.906;8.376;2023-07-13T14:39:29;3.30;;;2.53;;
19111;SDS011;9688;51.906;8.376;2023-07-13T14:42:15;5.78;;;2.92;;
19111;SDS011;9688;51.906;8.376;2023-07-13T14:45:01;4.40;;;2.75;;
19111;SDS011;9688;51.906;8.376;2023-07-13T14:47:48;4.53;;;2.72;;
19111;SDS011;9688;51.906;8.376;2023-07-13T14:50:35;4.57;;;2.70;;
19111;SDS011;9688;51.906;8.376;2023-07-13T14:53:24;8.57;;;3.17;;
19111;SDS011;9688;51.906;8.376;2023-07-13T14:56:12;4.13;;;2.58;;
19111;SDS011;9688;51.906;8.376;2023-07-13T14:59:03;5.03;;;2.30;;
19111;SDS011;9688;51.906;8.376;2023-07-13T15:01:51;4.37;;;2.57;;
19111;SDS011;9688;51.906;8.376;2023-07-13T15:04:38;6.37;;;3.00;;
19111;SDS011;9688;51.906;8.376;2023-07-13T15:07:25;5.77;;;3.20;;
19111;SDS011;9688;51.906;8.376;2023-07-13T15:10:14;4.30;;;3.27;;
19111;SDS011;9688;51.906;8.376;2023-07-13T15:13:14;3.97;;;3.20;;
19111;SDS011;9688;51.906;8.376;2023-07-13T15:16:01;5.23;;;3.43;;
19111;SDS011;9688;51.906;8.376;2023-07-13T15:18:49;7.73;;;3.90;;
19111;SDS011;9688;51.906;8.376;2023-07-13T15:21:39;7.43;;;3.37;;
19111;SDS011;9688;51.906;8.376;2023-07-13T15:24:25;4.93;;;3.40;;
19111;SDS011;9688;51.906;8.376;2023-07-13T15:27:13;5.07;;;3.50;;
19111;SDS011;9688;51.906;8.376;2023-07-13T15:29:59;4.57;;;3.67;;
19111;SDS011;9688;51.906;8.376;2023-07-13T15:32:45;3.80;;;3.40;;
19111;SDS011;9688;51.906;8.376;2023-07-13T15:35:33;7.47;;;4.80;;
19111;SDS011;9688;51.906;8.376;2023-07-13T15:38:19;4.30;;;3.53;;
19111;SDS011;9688;51.906;8.376;2023-07-13T15:41:17;4.93;;;3.83;;
19111;SDS011;9688;51.906;8.376;2023-07-13T15:44:22;6.07;;;3.73;;
19111;SDS011;9688;51.906;8.376;2023-07-13T15:47:13;6.23;;;3.60;;
19111;SDS011;9688;51.906;8.376;2023-07-13T15:50:00;3.63;;;3.10;;
19111;SDS011;9688;51.906;8.376;2023-07-13T15:52:48;3.10;;;2.90;;
19111;SDS011;9688;51.906;8.376;2023-07-13T15:55:39;7.07;;;3.47;;
19111;SDS011;9688;51.906;8.376;2023-07-13T15:58:25;4.30;;;3.10;;
19111;SDS011;9688;51.906;8.376;2023-07-13T16:01:14;3.53;;;2.70;;
19111;SDS011;9688;51.906;8.376;2023-07-13T16:04:00;3.07;;;2.70;;
19111;SDS011;9688;51.906;8.376;2023-07-13T16:06:46;4.17;;;2.90;;
19111;SDS011;9688;51.906;8.376;2023-07-13T16:09:32;3.00;;;2.80;;
19111;SDS011;9688;51.906;8.376;2023-07-13T16:12:18;4.40;;;2.90;;
19111;SDS011;9688;51.906;8.376;2023-07-13T16:15:08;3.40;;;2.70;;
19111;SDS011;9688;51.906;8.376;2023-07-13T16:17:59;5.47;;;3.37;;
19111;SDS011;9688;51.906;8.376;2023-07-13T16:20:45;3.80;;;2.53;;
19111;SDS011;9688;51.906;8.376;2023-07-13T16:23:32;6.87;;;2.37;;
19111;SDS011;9688;51.906;8.376;2023-07-13T16:26:22;2.30;;;2.10;;
19111;SDS011;9688;51.906;8.376;2023-07-13T16:29:13;2.57;;;1.90;;
19111;SDS011;9688;51.906;8.376;2023-07-13T16:32:01;2.40;;;2.00;;
19111;SDS011;9688;51.906;8.376;2023-07-13T16:34:51;2.67;;;2.33;;
19111;SDS011;9688;51.906;8.376;2023-07-13T16:37:37;2.53;;;2.00;;
19111;SDS011;9688;51.906;8.376;2023-07-13T16:40:26;2.43;;;1.90;;
19111;SDS011;9688;51.906;8.376;2023-07-13T16:43:15;2.80;;;2.00;;
19111;SDS011;9688;51.906;8.376;2023-07-13T16:46:07;2.90;;;1.97;;
19111;SDS011;9688;51.906;8.376;2023-07-13T16:48:59;3.53;;;2.20;;
19111;SDS011;9688;51.906;8.376;2023-07-13T16:51:47;3.17;;;2.40;;
19111;SDS011;9688;51.906;8.376;2023-07-13T16:54:33;6.57;;;2.30;;
19111;SDS011;9688;51.906;8.376;2023-07-13T16:57:23;1.97;;;1.87;;
19111;SDS011;9688;51.906;8.376;2023-07-13T17:00:16;2.97;;;1.70;;
19111;SDS011;9688;51.906;8.376;2023-07-13T17:03:11;1.80;;;1.70;;
19111;SDS011;9688;51.906;8.376;2023-07-13T17:05:57;3.57;;;1.80;;
19111;SDS011;9688;51.906;8.376;2023-07-13T17:08:46;2.77;;;1.70;;
19111;SDS011;9688;51.906;8.376;2023-07-13T17:11:31;2.20;;;2.00;;
19111;SDS011;9688;51.906;8.376;2023-07-13T17:14:18;2.40;;;2.03;;
19111;SDS011;9688;51.906;8.376;2023-07-13T17:17:08;2.53;;;2.10;;
19111;SDS011;9688;51.906;8.376;2023-07-13T17:20:00;2.43;;;2.10;;